Time;durP1;ratioP1;P1;durP2;ratioP2;P2;SDS_P1;SDS_P2;PMS_P1;PMS_P2;Temp;Humidity;BMP_temperature;BMP_pressure;BME280_temperature;BME280_humidity;BME280_pressure;Samples;Min_cycle;Max_cycle;Signal;HPM_P1;HPM_P2
2023/06/11 00:00:49;;;;;;;4.30;3.97;;;;;;;;;;4990817;28;20220;-31
2023/06/11 00:03:20;;;;;;;4.20;3.78;;;;;;;;;;4988782;28;20318;-34
2023/06/11 00:08:17;;;;;;;4.32;3.92;;;;;;;;;;4985777;28;20220;-39
2023/06/11 00:10:45;;;;;;;4.40;3.88;;;;;;;;;;4989303;28;20216;-38
2023/06/11 00:13:12;;;;;;;4.35;3.95;;;;;;;;;;4991667;28;20219;-41
2023/06/11 00:15:39;;;;;;;5.38;4.40;;;;;;;;;;4987256;28;20224;-41
2023/06/11 00:18:06;;;;;;;4.15;3.85;;;;;;;;;;4966246;28;20215;-41
2023/06/11 00:20:41;;;;;;;4.50;4.10;;;;;;;;;;4962835;28;20209;-38
2023/06/11 00:23:08;;;;;;;4.88;3.95;;;;;;;;;;4962434;28;20200;-37
2023/06/11 00:25:37;;;;;;;4.05;3.67;;;;;;;;;;4973955;28;20229;-41
2023/06/11 00:28:04;;;;;;;4.47;3.92;;;;;;;;;;4978735;28;20216;-41
2023/06/11 00:30:31;;;;;;;4.30;3.90;;;;;;;;;;4994844;28;20223;-36
2023/06/11 00:32:59;;;;;;;4.45;4.15;;;;;;;;;;4985505;28;20219;-40
2023/06/11 00:35:27;;;;;;;4.55;4.13;;;;;;;;;;4968912;28;20226;-37
2023/06/11 00:37:55;;;;;;;4.70;4.30;;;;;;;;;;4970939;28;20233;-41
2023/06/11 00:40:22;;;;;;;5.25;4.53;;;;;;;;;;4969954;28;20209;-41
2023/06/11 00:42:50;;;;;;;4.75;4.25;;;;;;;;;;4975221;28;20208;-37
2023/06/11 00:45:18;;;;;;;4.30;3.90;;;;;;;;;;4972118;28;20223;-41
2023/06/11 00:47:45;;;;;;;4.35;3.95;;;;;;;;;;4968273;28;20216;-38
2023/06/11 00:50:15;;;;;;;4.30;3.90;;;;;;;;;;4973251;28;20205;-37
2023/06/11 00:52:42;;;;;;;4.78;4.32;;;;;;;;;;4967497;28;20216;-40
2023/06/11 00:55:11;;;;;;;5.25;4.40;;;;;;;;;;4968875;28;20197;-36
2023/06/11 00:57:40;;;;;;;4.53;4.05;;;;;;;;;;4974390;28;20232;-37
2023/06/11 01:00:12;;;;;;;5.03;4.38;;;;;;;;;;4974338;28;20612;-35
2023/06/11 01:02:43;;;;;;;4.88;4.40;;;;;;;;;;4969036;28;20213;-40
2023/06/11 01:05:10;;;;;;;4.45;4.07;;;;;;;;;;4969411;28;20224;-33
2023/06/11 01:07:41;;;;;;;4.25;3.70;;;;;;;;;;4972029;28;20208;-37
2023/06/11 01:10:09;;;;;;;4.00;3.70;;;;;;;;;;4971951;28;20204;-39
2023/06/11 01:12:36;;;;;;;5.30;4.80;;;;;;;;;;4974500;28;20204;-42
2023/06/11 01:15:03;;;;;;;5.35;4.40;;;;;;;;;;4974485;28;20201;-41
2023/06/11 01:17:40;;;;;;;4.35;4.05;;;;;;;;;;4968530;28;20697;-40
2023/06/11 01:20:12;;;;;;;6.13;4.32;;;;;;;;;;4974269;28;20227;-37
2023/06/11 01:23:09;;;;;;;4.07;3.60;;;;;;;;;;4970751;28;20192;-39
2023/06/11 01:25:39;;;;;;;4.65;4.18;;;;;;;;;;4912899;29;20234;-40
2023/06/11 01:28:10;;;;;;;4.75;4.35;;;;;;;;;;4957485;28;20200;-38
2023/06/11 01:30:38;;;;;;;4.85;4.40;;;;;;;;;;4969306;28;20219;-42
2023/06/11 01:33:08;;;;;;;5.38;4.35;;;;;;;;;;4963168;28;20309;-36
2023/06/11 01:35:35;;;;;;;4.65;4.03;;;;;;;;;;4969771;28;20225;-37
2023/06/11 01:38:02;;;;;;;5.18;4.68;;;;;;;;;;4981891;28;20295;-41
2023/06/11 01:40:30;;;;;;;4.25;3.95;;;;;;;;;;4965788;28;20215;-39
2023/06/11 01:42:57;;;;;;;4.75;3.97;;;;;;;;;;4970288;28;20707;-38
2023/06/11 01:45:26;;;;;;;5.03;4.57;;;;;;;;;;4970325;28;20279;-38
2023/06/11 01:47:53;;;;;;;4.30;3.90;;;;;;;;;;4966899;28;20204;-39
2023/06/11 01:50:21;;;;;;;4.30;4.00;;;;;;;;;;4970230;28;20222;-43
2023/06/11 01:52:48;;;;;;;4.57;4.00;;;;;;;;;;4966719;28;20235;-39
2023/06/11 01:55:16;;;;;;;4.80;4.30;;;;;;;;;;4968435;28;20196;-35
2023/06/11 01:57:43;;;;;;;4.60;4.18;;;;;;;;;;4974830;28;20208;-37
2023/06/11 02:00:11;;;;;;;4.57;4.03;;;;;;;;;;4976802;28;20205;-35
2023/06/11 02:02:41;;;;;;;5.00;4.47;;;;;;;;;;4967086;28;20213;-38
2023/06/11 02:05:09;;;;;;;6.13;4.68;;;;;;;;;;4971101;28;20217;-41
2023/06/11 02:07:36;;;;;;;4.55;4.15;;;;;;;;;;4970498;28;20204;-43
2023/06/11 02:10:03;;;;;;;4.90;4.28;;;;;;;;;;4963972;28;20212;-37
2023/06/11 02:12:31;;;;;;;5.43;4.47;;;;;;;;;;4970788;28;20204;-33
2023/06/11 02:14:58;;;;;;;4.55;4.15;;;;;;;;;;4971978;28;20213;-35
2023/06/11 02:17:25;;;;;;;6.73;4.37;;;;;;;;;;4971812;28;20230;-40
2023/06/11 02:19:53;;;;;;;6.25;4.60;;;;;;;;;;4969941;28;20227;-35
2023/06/11 02:22:20;;;;;;;4.63;4.23;;;;;;;;;;4973638;28;20211;-37
2023/06/11 02:24:47;;;;;;;4.77;4.37;;;;;;;;;;4958135;28;20236;-37
2023/06/11 02:27:14;;;;;;;4.63;4.23;;;;;;;;;;4969599;28;20224;-34
2023/06/11 02:29:42;;;;;;;5.00;4.30;;;;;;;;;;4987057;28;20215;-36
2023/06/11 02:32:09;;;;;;;5.10;3.70;;;;;;;;;;4973634;28;20204;-41
2023/06/11 02:34:36;;;;;;;4.18;3.78;;;;;;;;;;4969854;28;20208;-41
2023/06/11 02:37:05;;;;;;;4.75;4.10;;;;;;;;;;4977732;28;20228;-33
2023/06/11 02:39:32;;;;;;;4.50;4.10;;;;;;;;;;4966970;28;20212;-37
2023/06/11 02:41:59;;;;;;;4.80;4.30;;;;;;;;;;4973550;28;20281;-36
2023/06/11 02:44:26;;;;;;;4.37;3.93;;;;;;;;;;4973346;28;20200;-39
2023/06/11 02:46:53;;;;;;;4.83;3.73;;;;;;;;;;4970569;28;20229;-40
2023/06/11 02:49:21;;;;;;;4.30;3.97;;;;;;;;;;4967080;28;20505;-32
2023/06/11 02:51:48;;;;;;;4.43;4.03;;;;;;;;;;4974862;28;20205;-36
2023/06/11 02:54:17;;;;;;;4.57;4.00;;;;;;;;;;4968043;28;20667;-36
2023/06/11 02:56:44;;;;;;;4.97;4.00;;;;;;;;;;4974885;28;20228;-39
2023/06/11 02:59:11;;;;;;;5.20;3.63;;;;;;;;;;4973318;28;20209;-33
2023/06/11 03:01:39;;;;;;;3.73;3.43;;;;;;;;;;4974066;28;20208;-36
2023/06/11 03:04:06;;;;;;;3.90;3.60;;;;;;;;;;4966827;28;20212;-41
2023/06/11 03:06:34;;;;;;;4.07;3.77;;;;;;;;;;4972441;28;20255;-38
2023/06/11 03:09:01;;;;;;;3.97;3.67;;;;;;;;;;4963379;28;20204;-41
2023/06/11 03:11:30;;;;;;;4.43;4.03;;;;;;;;;;4972615;28;20243;-40
2023/06/11 03:13:57;;;;;;;5.80;4.20;;;;;;;;;;4973655;28;20389;-41
2023/06/11 03:16:24;;;;;;;4.47;3.63;;;;;;;;;;4964890;28;20229;-34
2023/06/11 03:18:51;;;;;;;4.20;3.87;;;;;;;;;;4972505;28;20208;-37
2023/06/11 03:21:18;;;;;;;4.20;3.90;;;;;;;;;;4973028;28;20201;-41
2023/06/11 03:23:45;;;;;;;3.80;3.50;;;;;;;;;;4965430;28;20212;-37
2023/06/11 03:26:12;;;;;;;4.10;3.70;;;;;;;;;;4972246;28;20235;-36
2023/06/11 03:28:41;;;;;;;4.10;3.63;;;;;;;;;;4977250;28;20196;-38
2023/06/11 03:31:08;;;;;;;3.50;3.20;;;;;;;;;;4971449;28;20209;-38
2023/06/11 03:33:35;;;;;;;4.80;4.30;;;;;;;;;;4969361;28;20209;-35
2023/06/11 03:36:02;;;;;;;4.53;4.13;;;;;;;;;;4973689;28;20224;-40
2023/06/11 03:38:29;;;;;;;4.07;3.77;;;;;;;;;;4964403;28;20648;-40
2023/06/11 03:40:56;;;;;;;5.37;3.90;;;;;;;;;;4975128;28;20248;-33
2023/06/11 03:43:23;;;;;;;4.70;4.30;;;;;;;;;;4975283;28;20211;-36
2023/06/11 03:45:52;;;;;;;4.40;3.70;;;;;;;;;;4975411;28;20241;-39
2023/06/11 03:48:19;;;;;;;3.80;3.50;;;;;;;;;;4971569;28;20216;-39
2023/06/11 03:50:46;;;;;;;4.00;3.70;;;;;;;;;;4974055;28;20217;-40
2023/06/11 03:53:13;;;;;;;4.20;3.90;;;;;;;;;;4968637;28;20219;-40
2023/06/11 03:55:40;;;;;;;3.97;3.67;;;;;;;;;;4974040;28;20236;-36
2023/06/11 03:58:07;;;;;;;4.33;3.73;;;;;;;;;;4984075;28;20197;-37
2023/06/11 04:00:34;;;;;;;4.13;3.73;;;;;;;;;;4972037;28;20209;-40
2023/06/11 04:03:03;;;;;;;4.93;4.13;;;;;;;;;;4978867;28;20564;-37
2023/06/11 04:05:35;;;;;;;4.50;4.10;;;;;;;;;;4979371;28;20243;-41
2023/06/11 04:08:02;;;;;;;4.07;3.77;;;;;;;;;;4970418;28;20213;-33
2023/06/11 04:10:29;;;;;;;4.47;4.07;;;;;;;;;;4972447;28;20213;-34
2023/06/11 04:12:56;;;;;;;4.60;4.03;;;;;;;;;;4978675;28;20204;-37
2023/06/11 04:15:24;;;;;;;4.30;3.90;;;;;;;;;;4980117;28;20212;-37
2023/06/11 04:17:51;;;;;;;4.67;4.27;;;;;;;;;;4968824;28;20543;-35
2023/06/11 04:20:19;;;;;;;3.77;3.47;;;;;;;;;;4969256;28;20239;-40
2023/06/11 04:22:46;;;;;;;12.53;6.03;;;;;;;;;;4976978;28;20950;-41
2023/06/11 04:25:14;;;;;;;4.15;3.75;;;;;;;;;;4969684;28;20209;-38
2023/06/11 04:27:41;;;;;;;4.23;3.90;;;;;;;;;;4974947;28;20220;-35
2023/06/11 04:30:09;;;;;;;4.27;3.87;;;;;;;;;;4975569;28;20208;-39
2023/06/11 04:32:36;;;;;;;3.70;3.40;;;;;;;;;;4968836;28;20212;-38
2023/06/11 04:35:04;;;;;;;4.47;4.07;;;;;;;;;;4972210;28;20295;-36
2023/06/11 04:37:39;;;;;;;4.50;4.10;;;;;;;;;;4964138;28;20229;-41
2023/06/11 04:40:09;;;;;;;4.90;3.67;;;;;;;;;;4972473;28;20196;-32
2023/06/11 04:42:37;;;;;;;4.87;3.97;;;;;;;;;;4975135;28;20279;-35
2023/06/11 04:45:04;;;;;;;4.63;4.13;;;;;;;;;;4975169;28;20212;-43
2023/06/11 04:47:32;;;;;;;4.70;4.30;;;;;;;;;;4969927;28;20251;-39
2023/06/11 04:50:03;;;;;;;5.20;4.03;;;;;;;;;;4968343;28;20200;-38
2023/06/11 04:52:31;;;;;;;4.60;4.00;;;;;;;;;;4972788;28;20196;-39
2023/06/11 04:55:00;;;;;;;4.70;4.17;;;;;;;;;;4970228;28;20255;-34
2023/06/11 04:57:27;;;;;;;4.40;4.00;;;;;;;;;;4974841;28;20253;-37
2023/06/11 04:59:54;;;;;;;4.87;3.53;;;;;;;;;;4974758;28;20211;-33
2023/06/11 05:02:22;;;;;;;4.37;4.00;;;;;;;;;;4965162;28;20200;-37
2023/06/11 05:04:53;;;;;;;5.87;4.43;;;;;;;;;;4970192;28;20216;-38
2023/06/11 05:07:20;;;;;;;5.17;4.20;;;;;;;;;;4971749;28;20251;-41
2023/06/11 05:09:47;;;;;;;5.57;3.87;;;;;;;;;;4965891;28;20214;-41
2023/06/11 05:12:16;;;;;;;5.40;4.20;;;;;;;;;;4974516;28;20631;-32
2023/06/11 05:14:44;;;;;;;4.05;3.75;;;;;;;;;;4974934;28;20209;-39
2023/06/11 05:17:11;;;;;;;6.72;3.92;;;;;;;;;;4967033;28;20217;-40
2023/06/11 05:19:38;;;;;;;3.85;3.55;;;;;;;;;;4971022;28;20205;-37
2023/06/11 05:22:06;;;;;;;4.05;3.75;;;;;;;;;;4985580;28;20238;-34
2023/06/11 05:24:33;;;;;;;3.92;3.63;;;;;;;;;;4968631;28;20295;-38
2023/06/11 05:27:01;;;;;;;4.18;3.72;;;;;;;;;;4965370;28;20235;-40
2023/06/11 05:29:30;;;;;;;3.50;3.20;;;;;;;;;;4973543;28;20204;-36
2023/06/11 05:31:57;;;;;;;4.10;3.70;;;;;;;;;;4977545;28;20239;-36
2023/06/11 05:34:25;;;;;;;4.82;4.10;;;;;;;;;;4969404;28;20208;-41
2023/06/11 05:36:53;;;;;;;4.47;4.07;;;;;;;;;;4972476;28;20357;-42
2023/06/11 05:39:20;;;;;;;4.70;4.03;;;;;;;;;;4963570;28;20223;-36
2023/06/11 05:41:47;;;;;;;4.60;4.20;;;;;;;;;;4972213;28;20209;-41
2023/06/11 05:44:14;;;;;;;4.50;4.20;;;;;;;;;;4973671;28;20212;-41
2023/06/11 05:46:42;;;;;;;4.70;4.30;;;;;;;;;;4970226;28;20543;-32
2023/06/11 05:49:09;;;;;;;4.00;3.70;;;;;;;;;;4969923;28;20213;-39
2023/06/11 05:51:37;;;;;;;5.88;3.67;;;;;;;;;;4973632;28;20231;-39
2023/06/11 05:54:04;;;;;;;4.00;3.60;;;;;;;;;;4962865;28;20306;-36
2023/06/11 05:56:31;;;;;;;4.18;3.50;;;;;;;;;;4973288;28;20318;-38
2023/06/11 05:58:58;;;;;;;4.53;4.13;;;;;;;;;;4973632;28;20214;-40
2023/06/11 06:01:25;;;;;;;3.78;3.50;;;;;;;;;;4965684;28;20212;-38
2023/06/11 06:03:53;;;;;;;5.93;4.88;;;;;;;;;;4971574;28;20215;-37
2023/06/11 06:06:21;;;;;;;4.05;3.65;;;;;;;;;;4973304;28;20245;-39
2023/06/11 06:08:48;;;;;;;5.10;3.80;;;;;;;;;;5067536;23;20262;-32
2023/06/11 06:11:15;;;;;;;4.38;3.97;;;;;;;;;;4987463;28;20209;-32
2023/06/11 06:13:42;;;;;;;3.97;3.67;;;;;;;;;;4995164;28;20210;-30
2023/06/11 06:16:09;;;;;;;4.25;3.85;;;;;;;;;;4983406;28;20226;-31
2023/06/11 06:18:37;;;;;;;5.63;3.78;;;;;;;;;;4973262;28;20210;-33
2023/06/11 06:21:18;;;;;;;4.10;3.80;;;;;;;;;;4970534;28;20213;-32
2023/06/11 06:23:45;;;;;;;5.32;3.97;;;;;;;;;;4974164;28;20203;-32
2023/06/11 06:26:13;;;;;;;5.93;3.67;;;;;;;;;;4974200;28;20237;-30
2023/06/11 06:28:40;;;;;;;3.97;3.65;;;;;;;;;;4978303;28;20205;-31
2023/06/11 06:31:12;;;;;;;4.32;3.85;;;;;;;;;;4974568;28;20210;-36
2023/06/11 06:33:40;;;;;;;3.85;3.55;;;;;;;;;;4977724;28;20203;-33
2023/06/11 06:36:09;;;;;;;5.80;4.20;;;;;;;;;;4977447;28;20218;-33
2023/06/11 06:38:38;;;;;;;4.05;3.60;;;;;;;;;;4973257;28;20210;-36
2023/06/11 06:41:05;;;;;;;5.80;4.07;;;;;;;;;;4977070;28;20243;-34
2023/06/11 06:43:32;;;;;;;4.30;3.90;;;;;;;;;;4977428;28;20204;-34
2023/06/11 06:45:59;;;;;;;3.85;3.55;;;;;;;;;;4976169;28;20233;-32
2023/06/11 06:48:26;;;;;;;4.30;3.92;;;;;;;;;;4975386;28;20206;-33
2023/06/11 06:50:53;;;;;;;4.53;3.50;;;;;;;;;;4977517;28;20214;-32
2023/06/11 06:53:21;;;;;;;4.40;4.10;;;;;;;;;;4969914;28;20220;-31
2023/06/11 06:55:50;;;;;;;3.60;3.30;;;;;;;;;;4975227;28;20232;-34
2023/06/11 06:58:17;;;;;;;6.28;3.78;;;;;;;;;;4976765;28;20290;-35
2023/06/11 07:00:45;;;;;;;4.05;3.75;;;;;;;;;;4974740;28;20208;-34
2023/06/11 07:03:14;;;;;;;4.80;3.53;;;;;;;;;;4975624;28;20227;-34
2023/06/11 07:05:42;;;;;;;4.07;3.72;;;;;;;;;;4975311;28;20235;-34
2023/06/11 07:08:12;;;;;;;3.92;3.58;;;;;;;;;;4970544;28;20288;-32
2023/06/11 07:10:39;;;;;;;4.15;3.72;;;;;;;;;;4972981;28;20294;-32
2023/06/11 07:13:07;;;;;;;4.38;3.58;;;;;;;;;;4976083;28;20209;-34
2023/06/11 07:15:36;;;;;;;4.10;3.70;;;;;;;;;;4975553;28;20610;-33
2023/06/11 07:18:03;;;;;;;6.35;4.00;;;;;;;;;;4966652;28;20204;-34
2023/06/11 07:20:30;;;;;;;4.47;3.50;;;;;;;;;;4973680;28;20468;-33
2023/06/11 07:22:59;;;;;;;4.28;3.45;;;;;;;;;;4967742;28;20208;-34
2023/06/11 07:25:28;;;;;;;4.35;3.97;;;;;;;;;;4972796;28;20308;-35
2023/06/11 07:27:55;;;;;;;3.97;3.67;;;;;;;;;;4975430;28;20316;-32
2023/06/11 07:30:34;;;;;;;3.85;3.50;;;;;;;;;;4979566;28;20208;-35
2023/06/11 07:33:03;;;;;;;5.15;3.28;;;;;;;;;;4982742;28;20283;-32
2023/06/11 07:35:30;;;;;;;3.60;3.30;;;;;;;;;;4976120;28;20296;-30
2023/06/11 07:37:57;;;;;;;3.80;3.50;;;;;;;;;;4976327;28;20200;-35
2023/06/11 07:40:24;;;;;;;3.75;3.45;;;;;;;;;;4977156;28;20215;-31
2023/06/11 07:42:51;;;;;;;3.55;3.28;;;;;;;;;;4976724;28;20211;-34
2023/06/11 07:45:26;;;;;;;3.25;2.95;;;;;;;;;;4975154;28;20212;-31
2023/06/11 07:47:53;;;;;;;3.88;3.53;;;;;;;;;;4968159;28;20218;-30
2023/06/11 07:50:21;;;;;;;4.57;3.47;;;;;;;;;;4976194;28;20561;-29
2023/06/11 07:52:48;;;;;;;6.43;3.63;;;;;;;;;;4971867;28;20299;-29
2023/06/11 07:55:17;;;;;;;4.53;3.40;;;;;;;;;;4973972;28;20574;-33
2023/06/11 07:57:44;;;;;;;3.60;3.30;;;;;;;;;;4976194;28;20200;-30
2023/06/11 08:00:12;;;;;;;3.67;3.38;;;;;;;;;;4975907;28;20216;-30
2023/06/11 08:02:40;;;;;;;3.75;3.40;;;;;;;;;;4971807;28;20212;-34
2023/06/11 08:05:08;;;;;;;3.58;3.28;;;;;;;;;;4975787;28;20212;-29
2023/06/11 08:07:36;;;;;;;5.80;3.80;;;;;;;;;;4973506;28;20264;-31
2023/06/11 08:10:04;;;;;;;4.32;3.30;;;;;;;;;;4974453;28;20650;-30
2023/06/11 08:12:31;;;;;;;3.35;3.00;;;;;;;;;;4975582;28;20552;-28
2023/06/11 08:14:58;;;;;;;5.82;3.60;;;;;;;;;;4975862;28;20209;-30
2023/06/11 08:17:25;;;;;;;4.50;3.67;;;;;;;;;;4965813;28;20229;-30
2023/06/11 08:19:52;;;;;;;3.55;3.25;;;;;;;;;;4975445;28;20215;-29
2023/06/11 08:22:19;;;;;;;4.45;3.65;;;;;;;;;;4982598;28;20200;-32
2023/06/11 08:24:48;;;;;;;4.07;3.67;;;;;;;;;;4965787;28;20232;-32
2023/06/11 08:27:15;;;;;;;6.50;3.40;;;;;;;;;;4973239;28;20227;-34
2023/06/11 08:29:42;;;;;;;4.15;3.78;;;;;;;;;;4974847;28;20202;-32
2023/06/11 08:32:09;;;;;;;3.00;2.78;;;;;;;;;;4970719;28;20204;-33
2023/06/11 08:34:36;;;;;;;3.80;3.08;;;;;;;;;;4973623;28;20216;-31
2023/06/11 08:37:03;;;;;;;3.53;3.22;;;;;;;;;;4973499;28;20216;-31
2023/06/11 08:39:30;;;;;;;3.63;3.33;;;;;;;;;;4969511;28;20212;-30
2023/06/11 08:41:59;;;;;;;4.18;3.15;;;;;;;;;;4976354;28;20209;-29
2023/06/11 08:44:26;;;;;;;3.85;3.40;;;;;;;;;;4981724;28;20298;-32
2023/06/11 08:46:55;;;;;;;5.20;3.28;;;;;;;;;;4978598;28;20224;-33
2023/06/11 08:49:23;;;;;;;3.60;3.10;;;;;;;;;;4976194;28;20204;-31
2023/06/11 08:51:50;;;;;;;7.22;4.00;;;;;;;;;;4976694;28;20228;-34
2023/06/11 08:54:18;;;;;;;3.70;3.40;;;;;;;;;;4972261;28;20670;-33
2023/06/11 08:56:45;;;;;;;3.75;3.40;;;;;;;;;;4977582;28;20226;-33
2023/06/11 08:59:13;;;;;;;3.70;3.40;;;;;;;;;;4977752;28;20195;-32
2023/06/11 09:01:41;;;;;;;4.00;3.60;;;;;;;;;;4978132;28;20214;-32
2023/06/11 09:04:08;;;;;;;3.78;3.45;;;;;;;;;;4976739;28;20204;-32
2023/06/11 09:06:36;;;;;;;3.13;2.83;;;;;;;;;;4975031;28;20243;-33
2023/06/11 09:09:05;;;;;;;4.28;3.88;;;;;;;;;;4962407;28;20216;-32
2023/06/11 09:11:33;;;;;;;4.43;3.50;;;;;;;;;;4973388;28;20208;-30
2023/06/11 09:14:00;;;;;;;4.68;3.72;;;;;;;;;;4984520;28;20208;-33
2023/06/11 09:16:29;;;;;;;5.07;3.67;;;;;;;;;;4973616;28;20300;-31
2023/06/11 09:18:56;;;;;;;4.55;3.50;;;;;;;;;;4966418;28;20204;-30
2023/06/11 09:21:24;;;;;;;3.90;3.47;;;;;;;;;;4974067;28;20208;-30
2023/06/11 09:23:52;;;;;;;4.30;3.85;;;;;;;;;;4967680;28;20216;-30
2023/06/11 09:26:19;;;;;;;3.42;3.20;;;;;;;;;;4976239;28;20235;-30
2023/06/11 09:28:47;;;;;;;3.50;3.20;;;;;;;;;;4973543;28;20228;-30
2023/06/11 09:31:14;;;;;;;6.60;3.83;;;;;;;;;;4969442;28;20210;-30
2023/06/11 09:33:42;;;;;;;3.60;3.30;;;;;;;;;;4966217;28;20295;-29
2023/06/11 09:36:10;;;;;;;4.50;3.30;;;;;;;;;;4961750;28;20227;-33
2023/06/11 09:38:37;;;;;;;5.53;3.88;;;;;;;;;;4967517;28;20209;-31
2023/06/11 09:41:06;;;;;;;3.80;3.50;;;;;;;;;;4973683;28;20238;-30
2023/06/11 09:43:34;;;;;;;4.32;3.67;;;;;;;;;;4973616;28;20612;-29
2023/06/11 09:46:02;;;;;;;6.25;3.65;;;;;;;;;;4971687;28;20849;-33
2023/06/11 09:48:30;;;;;;;4.43;3.38;;;;;;;;;;4960264;28;20565;-32
2023/06/11 09:51:00;;;;;;;3.92;3.58;;;;;;;;;;4970768;28;20200;-30
2023/06/11 09:53:28;;;;;;;5.05;3.83;;;;;;;;;;4957126;28;20262;-34
2023/06/11 09:55:56;;;;;;;3.83;3.42;;;;;;;;;;4970450;28;20246;-30
2023/06/11 09:58:24;;;;;;;3.67;3.38;;;;;;;;;;4980245;28;20203;-32
2023/06/11 10:00:52;;;;;;;3.70;3.42;;;;;;;;;;4993671;28;20215;-29
2023/06/11 10:03:19;;;;;;;4.15;3.65;;;;;;;;;;4974202;28;20459;-31
2023/06/11 10:05:46;;;;;;;5.22;3.60;;;;;;;;;;4971131;28;20876;-30
2023/06/11 10:08:18;;;;;;;4.72;3.20;;;;;;;;;;4973022;28;20228;-33
2023/06/11 10:10:46;;;;;;;4.55;3.60;;;;;;;;;;4973548;28;20201;-34
2023/06/11 10:13:13;;;;;;;3.80;3.50;;;;;;;;;;4974187;28;20209;-32
2023/06/11 10:15:40;;;;;;;3.70;3.25;;;;;;;;;;4973817;28;20239;-31
2023/06/11 10:18:16;;;;;;;3.83;3.50;;;;;;;;;;4966415;28;20216;-32
2023/06/11 10:20:53;;;;;;;4.47;4.07;;;;;;;;;;4972446;28;20657;-33
2023/06/11 10:23:43;;;;;;;4.32;3.88;;;;;;;;;;4964417;28;20219;-30
2023/06/11 10:26:12;;;;;;;4.18;3.78;;;;;;;;;;4966381;28;20236;-30
2023/06/11 10:28:42;;;;;;;5.35;3.33;;;;;;;;;;4973876;28;20220;-32
2023/06/11 10:31:09;;;;;;;3.83;3.53;;;;;;;;;;4969156;28;20211;-35
2023/06/11 10:33:44;;;;;;;3.92;3.63;;;;;;;;;;4961060;28;20220;-29
2023/06/11 10:36:21;;;;;;;5.60;3.33;;;;;;;;;;4960057;28;20227;-30
2023/06/11 10:38:49;;;;;;;5.25;3.60;;;;;;;;;;4966597;28;20205;-32
2023/06/11 10:41:17;;;;;;;6.18;3.88;;;;;;;;;;4973801;28;20201;-32
2023/06/11 10:43:47;;;;;;;4.00;3.25;;;;;;;;;;4973826;28;20208;-31
2023/06/11 10:46:19;;;;;;;4.45;3.75;;;;;;;;;;4973045;28;20235;-29
2023/06/11 10:48:50;;;;;;;4.20;3.85;;;;;;;;;;4971034;28;20244;-29
2023/06/11 10:51:22;;;;;;;4.50;4.10;;;;;;;;;;4969294;28;20197;-31
2023/06/11 10:53:56;;;;;;;3.55;3.28;;;;;;;;;;4961675;28;20220;-34
2023/06/11 10:56:38;;;;;;;4.18;3.78;;;;;;;;;;4963527;28;20233;-29
2023/06/11 10:59:21;;;;;;;5.07;3.72;;;;;;;;;;4975957;28;20698;-32
2023/06/11 11:01:48;;;;;;;3.65;3.30;;;;;;;;;;4966319;28;20217;-31
2023/06/11 11:04:16;;;;;;;3.88;3.58;;;;;;;;;;4982439;28;20334;-31
2023/06/11 11:06:43;;;;;;;5.75;3.38;;;;;;;;;;4964989;28;20240;-32
2023/06/11 11:09:11;;;;;;;6.13;3.25;;;;;;;;;;4967331;28;20300;-29
2023/06/11 11:11:49;;;;;;;3.95;3.30;;;;;;;;;;4976728;28;20294;-32
2023/06/11 11:14:17;;;;;;;3.42;3.13;;;;;;;;;;4984263;28;20207;-32
2023/06/11 11:16:47;;;;;;;3.72;3.20;;;;;;;;;;4989343;28;20228;-33
2023/06/11 11:19:15;;;;;;;3.35;3.05;;;;;;;;;;4970824;28;20200;-31
2023/06/11 11:21:42;;;;;;;3.70;3.35;;;;;;;;;;4976577;28;20299;-32
2023/06/11 11:24:10;;;;;;;5.80;3.47;;;;;;;;;;4970113;28;20251;-31
2023/06/11 11:26:53;;;;;;;3.78;3.38;;;;;;;;;;4975727;28;20316;-32
2023/06/11 11:29:20;;;;;;;4.28;3.30;;;;;;;;;;4976514;28;20212;-32
2023/06/11 11:31:48;;;;;;;4.20;3.28;;;;;;;;;;4974620;28;20590;-33
2023/06/11 11:34:15;;;;;;;3.38;3.17;;;;;;;;;;4974351;28;20210;-31
2023/06/11 11:36:46;;;;;;;4.03;3.40;;;;;;;;;;4976295;28;20232;-27
2023/06/11 11:39:14;;;;;;;3.72;3.35;;;;;;;;;;4969878;28;20196;-33
2023/06/11 11:41:45;;;;;;;3.65;3.30;;;;;;;;;;4975612;28;20214;-30
2023/06/11 11:44:15;;;;;;;4.25;3.47;;;;;;;;;;4975806;28;20218;-28
2023/06/11 11:46:42;;;;;;;5.78;3.72;;;;;;;;;;4975922;28;20295;-33
2023/06/11 11:49:10;;;;;;;6.65;3.80;;;;;;;;;;4972074;28;20217;-28
2023/06/11 11:51:40;;;;;;;3.78;3.47;;;;;;;;;;4975094;28;20208;-33
2023/06/11 11:54:13;;;;;;;4.38;3.97;;;;;;;;;;4970140;28;20295;-32
2023/06/11 11:56:41;;;;;;;7.85;3.88;;;;;;;;;;4976112;28;20307;-33
2023/06/11 11:59:18;;;;;;;5.43;3.72;;;;;;;;;;4975886;28;20201;-32
2023/06/11 12:01:54;;;;;;;4.43;3.22;;;;;;;;;;4973415;28;20211;-29
2023/06/11 12:04:22;;;;;;;3.95;3.65;;;;;;;;;;4974402;28;20200;-33
2023/06/11 12:06:49;;;;;;;3.90;3.60;;;;;;;;;;4974902;28;20220;-32
2023/06/11 12:09:16;;;;;;;3.90;3.50;;;;;;;;;;4972019;28;20311;-32
2023/06/11 12:11:43;;;;;;;3.97;3.53;;;;;;;;;;4974906;28;20204;-29
2023/06/11 12:14:10;;;;;;;3.85;3.55;;;;;;;;;;4975721;28;20201;-31
2023/06/11 12:16:39;;;;;;;4.20;3.80;;;;;;;;;;4973425;28;20224;-31
2023/06/11 12:19:07;;;;;;;3.65;3.30;;;;;;;;;;4974905;28;20212;-33
2023/06/11 12:21:34;;;;;;;4.47;3.83;;;;;;;;;;4975552;28;20219;-31
2023/06/11 12:24:01;;;;;;;10.80;3.60;;;;;;;;;;4962507;28;20205;-33
2023/06/11 12:26:28;;;;;;;5.50;3.60;;;;;;;;;;4974789;28;20229;-30
2023/06/11 12:28:56;;;;;;;4.32;3.17;;;;;;;;;;4974536;28;20225;-31
2023/06/11 12:31:23;;;;;;;4.32;3.92;;;;;;;;;;4970202;28;20236;-32
2023/06/11 12:33:51;;;;;;;7.53;4.57;;;;;;;;;;5058227;23;20240;-25
2023/06/11 12:36:19;;;;;;;4.07;3.70;;;;;;;;;;4974641;28;20232;-26
2023/06/11 12:38:46;;;;;;;6.93;3.42;;;;;;;;;;4972731;28;20219;-28
2023/06/11 12:41:13;;;;;;;3.75;3.42;;;;;;;;;;4965266;28;20201;-25
2023/06/11 12:43:40;;;;;;;3.40;3.20;;;;;;;;;;4978289;28;20208;-23
2023/06/11 12:46:10;;;;;;;5.70;3.60;;;;;;;;;;4968688;28;20235;-28
2023/06/11 12:48:38;;;;;;;4.07;3.30;;;;;;;;;;4964598;28;20216;-25
2023/06/11 12:51:06;;;;;;;4.75;3.65;;;;;;;;;;4973442;28;20208;-26
2023/06/11 12:53:33;;;;;;;4.63;3.50;;;;;;;;;;4964635;28;20232;-27
2023/06/11 12:56:01;;;;;;;4.35;3.90;;;;;;;;;;4960175;28;20232;-26
2023/06/11 13:09:36;;;;;;;3.65;3.35;;;;;;;;;;5128258;27;20617;-32
2023/06/11 13:12:04;;;;;;;3.75;3.42;;;;;;;;;;5109785;28;20199;-31
2023/06/11 13:14:31;;;;;;;3.65;3.35;;;;;;;;;;5114585;27;20207;-36
2023/06/11 13:16:58;;;;;;;5.38;3.35;;;;;;;;;;5110458;27;20195;-29
2023/06/11 13:19:25;;;;;;;4.97;3.70;;;;;;;;;;5118610;27;20245;-30
2023/06/11 13:21:52;;;;;;;3.60;3.30;;;;;;;;;;5098057;27;20604;-38
2023/06/11 13:24:20;;;;;;;6.57;3.75;;;;;;;;;;5094282;28;20496;-28
2023/06/11 13:26:49;;;;;;;3.53;3.30;;;;;;;;;;5117302;28;20235;-32
2023/06/11 13:29:18;;;;;;;4.82;3.70;;;;;;;;;;5110760;28;20199;-33
2023/06/11 13:31:45;;;;;;;4.53;3.38;;;;;;;;;;5124159;27;20313;-35
2023/06/11 13:34:12;;;;;;;5.95;3.72;;;;;;;;;;5123460;28;20206;-30
2023/06/11 13:36:39;;;;;;;8.40;3.72;;;;;;;;;;5130471;27;20207;-29
2023/06/11 13:39:06;;;;;;;4.63;3.28;;;;;;;;;;5117084;27;20222;-31
2023/06/11 13:41:35;;;;;;;3.95;3.65;;;;;;;;;;5108081;27;20255;-30
2023/06/11 13:44:03;;;;;;;3.85;3.40;;;;;;;;;;5097738;28;20195;-29
2023/06/11 13:46:30;;;;;;;4.28;3.30;;;;;;;;;;5128145;27;20207;-33
2023/06/11 13:48:57;;;;;;;4.40;4.05;;;;;;;;;;5117701;27;20200;-32
2023/06/11 13:51:27;;;;;;;4.60;3.53;;;;;;;;;;5121243;27;20215;-34
2023/06/11 13:53:54;;;;;;;3.72;3.42;;;;;;;;;;5109856;27;20204;-35
2023/06/11 13:56:33;;;;;;;4.25;3.45;;;;;;;;;;5101838;28;20203;-32
2023/06/11 13:59:01;;;;;;;4.75;3.20;;;;;;;;;;5100137;28;20272;-34
2023/06/11 14:01:29;;;;;;;4.03;3.63;;;;;;;;;;5108476;28;20222;-37
2023/06/11 14:03:56;;;;;;;3.50;3.30;;;;;;;;;;5105376;28;20204;-35
2023/06/11 14:06:23;;;;;;;7.07;3.17;;;;;;;;;;5117078;28;20208;-32
2023/06/11 14:08:50;;;;;;;3.63;3.33;;;;;;;;;;5105646;28;20235;-32
2023/06/11 14:11:18;;;;;;;3.95;3.40;;;;;;;;;;5103987;28;20232;-37
2023/06/11 14:13:47;;;;;;;3.78;3.47;;;;;;;;;;5091866;28;20209;-34
2023/06/11 14:16:14;;;;;;;3.80;3.50;;;;;;;;;;5103431;28;20207;-33
2023/06/11 14:18:42;;;;;;;5.03;3.45;;;;;;;;;;5097031;28;20220;-33
2023/06/11 14:21:10;;;;;;;3.70;3.40;;;;;;;;;;5101692;28;20281;-34
2023/06/11 14:23:37;;;;;;;3.78;3.47;;;;;;;;;;5085836;28;20209;-32
2023/06/11 14:26:04;;;;;;;3.72;3.30;;;;;;;;;;5106531;28;20271;-34
2023/06/11 14:28:31;;;;;;;3.85;3.40;;;;;;;;;;5098418;28;20200;-35
2023/06/11 14:30:59;;;;;;;3.60;3.30;;;;;;;;;;5094437;28;20220;-28
2023/06/11 14:33:26;;;;;;;3.53;3.10;;;;;;;;;;5087519;28;20643;-31
2023/06/11 14:35:55;;;;;;;3.53;3.22;;;;;;;;;;5099973;28;20208;-33
2023/06/11 14:38:22;;;;;;;4.82;3.90;;;;;;;;;;5090823;28;20229;-31
2023/06/11 14:40:49;;;;;;;5.35;4.80;;;;;;;;;;5108451;28;20302;-32
2023/06/11 14:43:16;;;;;;;4.05;3.28;;;;;;;;;;5091444;28;20209;-38
2023/06/11 14:45:43;;;;;;;4.22;3.60;;;;;;;;;;5073179;28;20197;-34
2023/06/11 14:48:10;;;;;;;4.32;3.00;;;;;;;;;;5095592;28;20196;-34
2023/06/11 14:50:37;;;;;;;3.30;3.10;;;;;;;;;;5103068;28;20230;-35
2023/06/11 14:53:07;;;;;;;3.75;3.30;;;;;;;;;;5105163;28;20208;-32
2023/06/11 14:55:35;;;;;;;3.90;3.60;;;;;;;;;;5112729;28;20566;-39
2023/06/11 14:58:02;;;;;;;3.80;3.50;;;;;;;;;;5087768;28;20218;-38
2023/06/11 15:00:29;;;;;;;3.47;3.17;;;;;;;;;;5096396;28;20248;-36
2023/06/11 15:02:56;;;;;;;3.42;3.13;;;;;;;;;;5082133;28;20208;-33